KICL/ICL METAR and TAF weather

Enter ICAO airport designator
Station Type Date Time Source
KICL METAR 2020/04/05 19:35 UTC NOAA

KICL 051935Z AUTO 15006G16KT 10SM CLR 15/02 A3008 RMK AO2


Station Type Date Time Source
KICL Decoded METAR 2020/04/05 19:35 UTC NOAA

Clarinda, IA, United States (KICL) 40-43N 095-02W
Apr 05, 2020 - 03:35 PM EDT / 2020.04.05 1935 UTC
Wind: from the SSE (150 degrees) at 7 MPH (6 KT) gusting to 18 MPH (16 KT):0
Visibility: 10 mile(s):0
Sky conditions: clear
Temperature: 59 F (15 C)
Dew Point: 35 F (2 C)
Relative Humidity: 41%
Pressure (altimeter): 30.08 in. Hg (1018 hPa)
ob: KICL 051935Z AUTO 15006G16KT 10SM CLR 15/02 A3008 RMK AO2
cycle: 19

Station Type Date Time Source
KICL TAF UTC NOAA

Error!

Example: see airport list